Franklin, Indiana
Current Conditions -  °F | °C
As of 3:35 PM on Monday 26 Jan 2015 (Local Time) from KGEZ Reporting Station
Overcast Overcast  
Wind Chill: 20°   Ceiling: 11000
Heat Index: 29°   Visibility: 10mi
Dew Point: 19°   Wind: 10mph
Humidity: 67%   Direction: 250°WSW
Pressure: 29.9"   Gusts: NA
Location:  39.48°N, 86.06°W
Report Text: KGEZ 262035Z AUTO 25009KT 10SM SCT022 OVC110 M02/M07 A2990 RMK AO2 T10171072
Loading
Personal Weather Stations






























Interactive Weather Map New forecast layout! Learn more

10-Day Weather Forecast

Advertisements
Track Severe Weather on mobile